createdAt,value
2023-04-09T00:00:54.932Z,18.5
2023-04-09T00:01:55.009Z,18.3571
2023-04-09T00:02:55.076Z,17.5
2023-04-09T00:03:55.120Z,17.9286
2023-04-09T00:04:55.086Z,19.1429
2023-04-09T00:05:55.130Z,18.4286
2023-04-09T00:06:55.170Z,19.3571
2023-04-09T00:07:55.209Z,19.5
2023-04-09T00:08:55.243Z,19.7143
2023-04-09T00:09:55.290Z,19.7143
2023-04-09T00:10:55.324Z,19.9286
2023-04-09T00:11:55.370Z,20.5
2023-04-09T00:12:55.417Z,20.9286
2023-04-09T00:13:55.452Z,21.6429
2023-04-09T00:14:55.571Z,20.6429
2023-04-09T00:15:55.542Z,20.4286
2023-04-09T00:16:55.570Z,20.2143
2023-04-09T00:17:55.635Z,19.6429
2023-04-09T00:18:55.643Z,20.2143
2023-04-09T00:19:55.690Z,20.1429
2023-04-09T00:20:55.727Z,21.6429
2023-04-09T00:21:55.768Z,21.7143
2023-04-09T00:22:55.804Z,21.4286
2023-04-09T00:23:55.850Z,20.4286
2023-04-09T00:24:55.877Z,20.7143
2023-04-09T00:25:55.916Z,17.3571
2023-04-09T00:26:55.961Z,17.4286
2023-04-09T00:27:55.997Z,17
2023-04-09T00:28:56.044Z,18.1429
2023-04-09T00:29:56.075Z,17.9286
2023-04-09T00:30:56.110Z,17.3571
2023-04-09T00:31:56.207Z,17.9286
2023-04-09T00:32:56.227Z,17.3571
2023-04-09T00:33:56.237Z,16.3571
2023-04-09T00:34:56.272Z,17.7143
2023-04-09T00:35:56.367Z,17.8571
2023-04-09T00:36:56.347Z,16.6429
2023-04-09T00:37:56.393Z,16.6429
2023-04-09T00:38:56.434Z,18
2023-04-09T00:39:56.463Z,17.4286
2023-04-09T00:40:56.496Z,16.4286
2023-04-09T00:41:56.538Z,16.2143
2023-04-09T00:42:56.581Z,15.9286
2023-04-09T00:43:56.621Z,15.8571
2023-04-09T00:44:56.660Z,16.1429
2023-04-09T00:45:56.733Z,15.8571
2023-04-09T00:46:56.732Z,15
2023-04-09T00:47:56.817Z,15.1429
2023-04-09T00:48:56.810Z,14.4286
2023-04-09T00:49:56.844Z,13.8571
2023-04-09T00:50:56.876Z,13.7143
2023-04-09T00:51:56.915Z,13.8571
2023-04-09T00:52:56.961Z,13.2143
2023-04-09T00:53:56.997Z,13.2143
2023-04-09T00:54:57.032Z,13.9286
2023-04-09T00:55:57.095Z,14.4286
2023-04-09T00:56:57.106Z,14.2143
2023-04-09T00:57:57.144Z,13.2143
2023-04-09T00:58:57.177Z,15.1429
2023-04-09T00:59:57.223Z,14.5
2023-04-09T01:00:57.267Z,13.8571
2023-04-09T01:01:57.348Z,13.9286
2023-04-09T01:02:57.395Z,14.5
2023-04-09T01:03:57.370Z,14
2023-04-09T01:04:57.407Z,14.4286
2023-04-09T01:05:57.448Z,14.2143
2023-04-09T01:06:57.484Z,14.7143
2023-04-09T01:07:57.556Z,15.1429
2023-04-09T01:08:57.571Z,14.2143
2023-04-09T01:09:57.599Z,14.7143
2023-04-09T01:10:57.650Z,14.7143
2023-04-09T01:11:57.687Z,15.4286
2023-04-09T01:12:57.727Z,15.8571
2023-04-09T01:13:57.764Z,15.7143
2023-04-09T01:14:57.793Z,15.8571
2023-04-09T01:15:57.830Z,15.9286
2023-04-09T01:16:57.889Z,15.1429
2023-04-09T01:17:57.952Z,14.6429
2023-04-09T01:18:57.942Z,14.2143
2023-04-09T01:19:57.979Z,14.4286
2023-04-09T01:20:58.012Z,14.2143
2023-04-09T01:21:58.064Z,14.9286
2023-04-09T01:22:58.087Z,14.7143
2023-04-09T01:23:58.141Z,15.5
2023-04-09T01:24:58.164Z,16.4286
2023-04-09T01:25:58.206Z,16.7143
2023-04-09T01:26:58.262Z,17.5
2023-04-09T01:27:58.290Z,15.2143
2023-04-09T01:28:58.332Z,16.5
2023-04-09T01:29:58.365Z,17.2143
2023-04-09T01:30:58.444Z,17
2023-04-09T01:31:58.431Z,16.8571
2023-04-09T01:32:58.527Z,16.7143
2023-04-09T01:33:58.523Z,17.7143
2023-04-09T01:34:58.565Z,17.1429
2023-04-09T01:35:58.638Z,16.3571
2023-04-09T01:36:58.656Z,16.5
2023-04-09T01:37:58.678Z,15.7143
2023-04-09T01:38:58.720Z,16
2023-04-09T01:39:58.766Z,15.6429
2023-04-09T01:40:58.802Z,16.1429
2023-04-09T01:41:58.848Z,15.9286
2023-04-09T01:42:58.900Z,15.9286
2023-04-09T01:43:58.932Z,16.2143
2023-04-09T01:44:58.969Z,15.4286
2023-04-09T01:45:59.022Z,15.7143
2023-04-09T01:46:59.052Z,15.5
2023-04-09T01:47:59.126Z,15.7143
2023-04-09T01:48:59.129Z,15.7143
2023-04-09T01:49:59.161Z,16.6429
2023-04-09T01:50:59.201Z,17.2143
2023-04-09T01:51:59.246Z,18.7143
2023-04-09T01:52:59.277Z,17.6429
2023-04-09T01:53:59.318Z,17.7143
2023-04-09T01:54:59.355Z,17.6429
2023-04-09T01:55:59.400Z,16.8571
2023-04-09T01:56:59.434Z,17.4286
2023-04-09T01:57:59.474Z,17.2143
2023-04-09T01:58:59.513Z,17.1429
2023-04-09T01:59:59.547Z,16.5
2023-04-09T02:00:59.623Z,16.1429
2023-04-09T02:01:59.794Z,16.9286
2023-04-09T02:02:59.818Z,16.3571
2023-04-09T02:03:59.812Z,16.2143
2023-04-09T02:04:59.760Z,15.5
2023-04-09T02:05:59.799Z,16.4286
2023-04-09T02:06:59.836Z,18
2023-04-09T02:07:59.864Z,17.1429
2023-04-09T02:08:59.917Z,16.4286
2023-04-09T02:09:59.947Z,17.7143
2023-04-09T02:10:59.984Z,18.7143
2023-04-09T02:12:00.041Z,18.3571
2023-04-09T02:13:00.057Z,17.8571
2023-04-09T02:14:00.128Z,17.6429
2023-04-09T02:15:00.186Z,17.5
2023-04-09T02:16:00.181Z,17.4286
2023-04-09T02:17:00.209Z,17
2023-04-09T02:18:00.324Z,17.8571
2023-04-09T02:19:00.290Z,18.2143
2023-04-09T02:20:00.345Z,17
2023-04-09T02:21:00.373Z,17.7143
2023-04-09T02:22:00.415Z,17.2143
2023-04-09T02:23:00.447Z,18.2143
2023-04-09T02:24:00.496Z,17.2143
2023-04-09T02:25:00.531Z,17.3571
2023-04-09T02:26:00.560Z,16.3571
2023-04-09T02:27:00.603Z,17
2023-04-09T02:28:00.638Z,18.1429
2023-04-09T02:29:00.668Z,17
2023-04-09T02:30:00.714Z,18.7143
2023-04-09T02:31:00.814Z,17.6429
2023-04-09T02:32:00.809Z,16.5
2023-04-09T02:33:00.881Z,17.5
2023-04-09T02:34:00.868Z,17.6429
2023-04-09T02:35:00.918Z,17.7143
2023-04-09T02:36:00.959Z,18.5
2023-04-09T02:37:00.994Z,18.6429
2023-04-09T02:38:01.024Z,17.2143
2023-04-09T02:39:01.068Z,17.7143
2023-04-09T02:40:01.099Z,17.6429
2023-04-09T02:41:01.140Z,16.8571
2023-04-09T02:42:01.180Z,18.6429
2023-04-09T02:43:01.230Z,18.6429
2023-04-09T02:44:01.257Z,18.2143
2023-04-09T02:45:01.299Z,17.8571
2023-04-09T02:46:01.374Z,17.6429
2023-04-09T02:47:01.375Z,16.5
2023-04-09T02:48:01.423Z,16.4286
2023-04-09T02:49:01.460Z,16.6429
2023-04-09T02:50:01.504Z,16.3571
2023-04-09T02:51:01.538Z,17.2143
2023-04-09T02:52:01.582Z,16.3571
2023-04-09T02:53:01.624Z,16.4286
2023-04-09T02:54:01.656Z,17.4286
2023-04-09T02:55:01.696Z,18
2023-04-09T02:56:01.791Z,18.3571
2023-04-09T02:57:01.778Z,17.7143
2023-04-09T02:58:01.814Z,18.3571
2023-04-09T02:59:01.847Z,18.3571
2023-04-09T03:00:01.899Z,16.5
2023-04-09T03:01:01.939Z,17.4286
2023-04-09T03:02:02.086Z,17
2023-04-09T03:03:02.182Z,17
2023-04-09T03:04:02.196Z,16.4286
2023-04-09T03:05:02.111Z,17.2143
2023-04-09T03:06:02.140Z,17.8571
2023-04-09T03:07:02.186Z,17.1429
2023-04-09T03:08:02.231Z,16.7143
2023-04-09T03:09:02.264Z,17.5
2023-04-09T03:10:02.304Z,17.9286
2023-04-09T03:11:02.366Z,17.9286
2023-04-09T03:12:02.395Z,17.8571
2023-04-09T03:13:02.432Z,18.2143
2023-04-09T03:14:02.483Z,18.6429
2023-04-09T03:15:02.519Z,17.7143
2023-04-09T03:16:02.615Z,17.5
2023-04-09T03:17:02.643Z,17.5
2023-04-09T03:18:02.701Z,18.3571
2023-04-09T03:19:02.678Z,17.6429
2023-04-09T03:20:02.720Z,18.3571
2023-04-09T03:21:02.750Z,18.6429
2023-04-09T03:22:02.798Z,18.4286
2023-04-09T03:23:02.836Z,18
2023-04-09T03:24:02.882Z,18.1429
2023-04-09T03:25:02.916Z,18.3571
2023-04-09T03:26:02.986Z,18.4286
2023-04-09T03:27:02.999Z,19.4286
2023-04-09T03:28:03.047Z,20.9286
2023-04-09T03:29:03.070Z,20.8571
2023-04-09T03:30:03.108Z,18.9286
2023-04-09T03:31:03.181Z,20.1429
2023-04-09T03:32:03.201Z,20
2023-04-09T03:33:03.281Z,19.9286
2023-04-09T03:34:03.281Z,19.1429
2023-04-09T03:35:03.328Z,19.6429
2023-04-09T03:36:03.395Z,20.2143
2023-04-09T03:37:03.400Z,19.4286
2023-04-09T03:38:03.443Z,19.9286
2023-04-09T03:39:03.472Z,18.3571
2023-04-09T03:40:03.503Z,18.8571
2023-04-09T03:41:03.551Z,17.8571
2023-04-09T03:42:03.583Z,17.8571
2023-04-09T03:43:03.623Z,18.1429
2023-04-09T03:44:03.665Z,18.3571
2023-04-09T03:45:03.696Z,17.8571
2023-04-09T03:46:03.722Z,19.5
2023-04-09T03:47:03.767Z,20.8571
2023-04-09T03:48:03.866Z,22.4286
2023-04-09T03:49:03.851Z,20.3571
2023-04-09T03:50:03.875Z,19.5
2023-04-09T03:51:03.918Z,20.4286
2023-04-09T03:52:03.964Z,20.4286
2023-04-09T03:53:03.994Z,20.4286
2023-04-09T03:54:04.036Z,20.9286
2023-04-09T03:55:04.076Z,21.9286
2023-04-09T03:56:04.117Z,22.5
2023-04-09T03:57:04.145Z,21.5
2023-04-09T03:58:04.189Z,22.1429
2023-04-09T03:59:04.229Z,22.7143
2023-04-09T04:00:04.303Z,21.9286
2023-04-09T04:01:04.308Z,23
2023-04-09T04:02:04.392Z,23.1429
2023-04-09T04:03:04.601Z,22.5
2023-04-09T04:04:04.564Z,22.5
2023-04-09T04:05:04.460Z,21.8571
2023-04-09T04:06:04.496Z,20.7143
2023-04-09T04:07:04.529Z,21.5
2023-04-09T04:08:04.562Z,20.7143
2023-04-09T04:09:04.597Z,21
2023-04-09T04:10:04.637Z,23.1429
2023-04-09T04:11:04.672Z,21
2023-04-09T04:12:04.705Z,23.3571
2023-04-09T04:13:04.781Z,24.3571
2023-04-09T04:14:04.797Z,23.6429
2023-04-09T04:15:04.836Z,23.5
2023-04-09T04:16:04.924Z,23.3571
2023-04-09T04:17:04.908Z,25
2023-04-09T04:18:04.944Z,24.3571
2023-04-09T04:19:04.976Z,24.2143
2023-04-09T04:20:05.008Z,23.9286
2023-04-09T04:21:05.057Z,24.6429
2023-04-09T04:22:05.085Z,24.3571
2023-04-09T04:23:05.129Z,23.7143
2023-04-09T04:24:05.166Z,25.3571
2023-04-09T04:25:05.216Z,24.4286
2023-04-09T04:26:05.246Z,24.3571
2023-04-09T04:27:05.285Z,24.6429
2023-04-09T04:28:05.321Z,25.2143
2023-04-09T04:29:05.365Z,25.2143
2023-04-09T04:30:05.404Z,24.6429
2023-04-09T04:31:05.432Z,25.6429
2023-04-09T04:32:05.552Z,24.6429
2023-04-09T04:33:05.565Z,24.9286
2023-04-09T04:34:05.542Z,25.5
2023-04-09T04:35:05.590Z,25.6429
2023-04-09T04:36:05.628Z,24.8571
2023-04-09T04:37:05.678Z,24.9286
2023-04-09T04:38:05.709Z,24.1429
2023-04-09T04:39:05.779Z,24.7143
2023-04-09T04:40:05.796Z,24.5
2023-04-09T04:41:05.820Z,25
2023-04-09T04:42:05.866Z,23.9286
2023-04-09T04:43:05.908Z,24.8571
2023-04-09T04:44:05.951Z,25.3571
2023-04-09T04:45:06.000Z,24
2023-04-09T04:46:06.051Z,23.7143
2023-04-09T04:47:06.067Z,23.4286
2023-04-09T04:48:06.101Z,23
2023-04-09T04:49:06.138Z,23
2023-04-09T04:50:06.203Z,23.9286
2023-04-09T04:51:06.232Z,22.8571
2023-04-09T04:52:06.268Z,23.5
2023-04-09T04:53:06.297Z,20.6429
2023-04-09T04:54:06.346Z,22.1429
2023-04-09T04:55:06.369Z,21.6429
2023-04-09T04:56:06.395Z,21.3571
2023-04-09T04:57:06.441Z,20.9286
2023-04-09T04:58:06.485Z,22.5
2023-04-09T04:59:06.513Z,21.5
2023-04-09T05:00:06.553Z,22
2023-04-09T05:01:06.652Z,21.6429
2023-04-09T05:02:06.745Z,21.8571
2023-04-09T05:03:06.907Z,21.9286
2023-04-09T05:04:06.703Z,21.2143
2023-04-09T05:05:06.735Z,21.8571
2023-04-09T05:06:06.781Z,21.2143
2023-04-09T05:07:06.831Z,21.3571
2023-04-09T05:08:06.848Z,21.6429
2023-04-09T05:09:06.901Z,21
2023-04-09T05:10:06.935Z,21.4286
2023-04-09T05:11:06.979Z,21.9286
2023-04-09T05:12:07.014Z,20.7143
2023-04-09T05:13:07.042Z,22.6429
2023-04-09T05:14:07.093Z,21.2143
2023-04-09T05:15:07.130Z,21.2143
2023-04-09T05:16:07.167Z,20.8571
2023-04-09T05:17:07.209Z,21.1429
2023-04-09T05:18:07.247Z,20.6429
2023-04-09T05:19:07.287Z,22
2023-04-09T05:20:07.321Z,20.5
2023-04-09T05:21:07.365Z,20.7143
2023-04-09T05:22:07.416Z,20.9286
2023-04-09T05:23:07.435Z,20.8571
2023-04-09T05:24:07.466Z,21.2143
2023-04-09T05:25:07.509Z,20.7143
2023-04-09T05:26:07.537Z,20.9286
2023-04-09T05:27:07.572Z,21
2023-04-09T05:28:07.624Z,21
2023-04-09T05:29:07.657Z,21.6429
2023-04-09T05:30:07.696Z,20.4286
2023-04-09T05:31:07.846Z,21.1429
2023-04-09T05:32:07.781Z,22.9286
2023-04-09T05:33:07.803Z,20.5
2023-04-09T05:34:07.848Z,20.1429
2023-04-09T05:35:07.896Z,22.1429
2023-04-09T05:36:08.008Z,20.5
2023-04-09T05:37:07.964Z,20.4286
2023-04-09T05:38:08.000Z,20.7143
2023-04-09T05:39:08.044Z,20.6429
2023-04-09T05:40:08.074Z,21.3571
2023-04-09T05:41:08.114Z,19.5
2023-04-09T05:42:08.179Z,20.4286
2023-04-09T05:43:08.206Z,19.7143
2023-04-09T05:44:08.242Z,20.1429
2023-04-09T05:45:08.275Z,19.8571
2023-04-09T05:46:08.316Z,19.9286
2023-04-09T05:47:08.347Z,20.5
2023-04-09T05:48:08.386Z,19.7143
2023-04-09T05:49:08.414Z,20.1429
2023-04-09T05:50:08.491Z,20
2023-04-09T05:51:08.527Z,20.4286
2023-04-09T05:52:08.538Z,20.1429
2023-04-09T05:53:08.565Z,19.4286
2023-04-09T05:54:08.612Z,19.9286
2023-04-09T05:55:08.645Z,19.7143
2023-04-09T05:56:08.700Z,20.4286
2023-04-09T05:57:08.713Z,19.9286
2023-04-09T05:58:08.758Z,19.2143
2023-04-09T05:59:08.784Z,20.5
2023-04-09T06:00:08.812Z,21
2023-04-09T06:01:08.860Z,19.9286
2023-04-09T06:02:08.947Z,20.2143
2023-04-09T06:03:08.981Z,20.4286
2023-04-09T06:04:09.141Z,20.1429
2023-04-09T06:05:09.004Z,19.2143
2023-04-09T06:06:09.038Z,19.8571
2023-04-09T06:07:09.077Z,20.1429
2023-04-09T06:08:09.124Z,20.9286
2023-04-09T06:09:09.164Z,20.3571
2023-04-09T06:10:09.209Z,20.7143
2023-04-09T06:11:09.244Z,20.1429
2023-04-09T06:12:09.269Z,20
2023-04-09T06:13:09.305Z,21.1429
2023-04-09T06:14:09.350Z,20.5
2023-04-09T06:15:09.458Z,20
2023-04-09T06:16:09.456Z,19.6429
2023-04-09T06:17:09.449Z,20.4286
2023-04-09T06:18:09.558Z,20
2023-04-09T06:19:09.535Z,20.6429
2023-04-09T06:20:09.550Z,20.8571
2023-04-09T06:21:09.615Z,19.6429
2023-04-09T06:22:09.645Z,19.7143
2023-04-09T06:23:09.673Z,20.1429
2023-04-09T06:24:09.722Z,20.2143
2023-04-09T06:25:09.779Z,19.9286
2023-04-09T06:26:09.800Z,20.2143
2023-04-09T06:27:09.840Z,19.5
2023-04-09T06:28:09.871Z,20.5
2023-04-09T06:29:09.902Z,19.6429
2023-04-09T06:30:09.949Z,18.8571
2023-04-09T06:31:09.985Z,20.1429
2023-04-09T06:32:10.024Z,20
2023-04-09T06:33:10.099Z,19.7143
2023-04-09T06:34:10.114Z,19.5
2023-04-09T06:35:11.087Z,19.5
2023-04-09T06:36:10.260Z,19.5
2023-04-09T06:37:10.204Z,19.6429
2023-04-09T06:38:10.248Z,20.1429
2023-04-09T06:39:10.289Z,20.4286
2023-04-09T06:40:10.323Z,19.5
2023-04-09T06:41:10.356Z,19.7143
2023-04-09T06:42:10.401Z,18.9286
2023-04-09T06:43:10.427Z,20.1429
2023-04-09T06:44:10.495Z,19.4286
2023-04-09T06:45:10.515Z,20.2143
2023-04-09T06:46:10.569Z,19.8571
2023-04-09T06:47:10.593Z,20.2143
2023-04-09T06:48:10.622Z,19.8571
2023-04-09T06:49:10.735Z,19.2143
2023-04-09T06:50:10.699Z,19.7143
2023-04-09T06:51:10.740Z,19.3571
2023-04-09T06:52:10.767Z,19.2143
2023-04-09T06:53:10.843Z,19.4286
2023-04-09T06:54:10.840Z,19.5
2023-04-09T06:55:10.881Z,19.3571
2023-04-09T06:56:10.917Z,18.7143
2023-04-09T06:57:10.963Z,19.5
2023-04-09T06:58:10.991Z,19.4286
2023-04-09T06:59:11.040Z,19.4286
2023-04-09T07:00:11.080Z,18.5
2023-04-09T07:01:11.115Z,19.2143
2023-04-09T07:02:11.251Z,18.9286
2023-04-09T07:03:11.518Z,19.6429
2023-04-09T07:04:11.299Z,18.7143
2023-04-09T07:05:11.263Z,19.4286
2023-04-09T07:06:11.302Z,19.8571
2023-04-09T07:07:11.334Z,18.9286
2023-04-09T07:08:11.373Z,19.3571
2023-04-09T07:09:11.410Z,19.3571
2023-04-09T07:10:11.449Z,20.4286
2023-04-09T07:11:11.478Z,19.5
2023-04-09T07:12:11.529Z,19.4286
2023-04-09T07:13:11.557Z,19.9286
2023-04-09T07:14:11.595Z,19.6429
2023-04-09T07:15:11.636Z,20
2023-04-09T07:16:11.710Z,19.3571
2023-04-09T07:17:11.716Z,19
2023-04-09T07:18:11.759Z,18.4286
2023-04-09T07:19:11.787Z,19.2143
2023-04-09T07:20:11.829Z,19.5
2023-04-09T07:21:11.862Z,19.3571
2023-04-09T07:22:11.967Z,19.4286
2023-04-09T07:23:11.948Z,19.6429
2023-04-09T07:24:11.983Z,19.8571
2023-04-09T07:25:12.024Z,19.5
2023-04-09T07:26:12.057Z,19.3571
2023-04-09T07:27:12.092Z,20.4286
2023-04-09T07:28:12.135Z,18.9286
2023-04-09T07:29:12.165Z,20.7143
2023-04-09T07:30:12.221Z,20.4286
2023-04-09T07:31:12.292Z,20.5
2023-04-09T07:32:12.281Z,20.1429
2023-04-09T07:33:12.350Z,18.3571
2023-04-09T07:34:12.361Z,19.5
2023-04-09T07:35:12.419Z,19
2023-04-09T07:36:12.530Z,18.8571
2023-04-09T07:37:12.480Z,19.6429
2023-04-09T07:38:12.517Z,19.3571
2023-04-09T07:39:12.563Z,19.2143
2023-04-09T07:40:12.592Z,20.4286
2023-04-09T07:41:12.620Z,20.2143
2023-04-09T07:42:12.674Z,19.7143
2023-04-09T07:43:12.698Z,20.1429
2023-04-09T07:44:12.729Z,19.6429
2023-04-09T07:45:12.776Z,19.6429
2023-04-09T07:46:12.822Z,19.6429
2023-04-09T07:47:12.884Z,19.4286
2023-04-09T07:48:12.940Z,19.6429
2023-04-09T07:49:12.918Z,19.3571
2023-04-09T07:50:12.970Z,20.4286
2023-04-09T07:51:13.240Z,20.2143
2023-04-09T07:52:13.054Z,20.4286
2023-04-09T07:53:13.075Z,19.9286
2023-04-09T07:54:13.115Z,20.5
2023-04-09T07:55:13.150Z,20.1429
2023-04-09T07:56:13.181Z,20.3571
2023-04-09T07:57:13.233Z,22.2143
2023-04-09T07:58:13.286Z,22.4286
2023-04-09T07:59:13.306Z,22.1429
2023-04-09T08:00:13.338Z,21.5
2023-04-09T08:01:13.393Z,21.3571
2023-04-09T08:02:15.023Z,21.4286
2023-04-09T08:03:13.560Z,21.7143
2023-04-09T08:04:13.752Z,21.3571
2023-04-09T08:05:13.763Z,21.9286
2023-04-09T08:06:13.600Z,22.6429
2023-04-09T08:07:13.631Z,22.5
2023-04-09T08:08:13.655Z,23
2023-04-09T08:09:13.692Z,23.7143
2023-04-09T08:10:13.725Z,22.4286
2023-04-09T08:11:13.761Z,22.4286
2023-04-09T08:12:13.794Z,23.4286
2023-04-09T08:13:13.838Z,23.5
2023-04-09T08:14:13.872Z,23.4286
2023-04-09T08:15:13.903Z,22.8571
2023-04-09T08:16:14.011Z,24.2143
2023-04-09T08:17:13.975Z,23.6429
2023-04-09T08:18:14.010Z,24.2143
2023-04-09T08:19:14.054Z,24.4286
2023-04-09T08:20:14.095Z,23.9286
2023-04-09T08:21:14.152Z,24.8571
2023-04-09T08:22:14.177Z,25.6429
2023-04-09T08:23:14.212Z,23.7143
2023-04-09T08:24:14.253Z,24.3571
2023-04-09T08:25:14.299Z,25.1429
2023-04-09T08:26:14.334Z,24
2023-04-09T08:27:14.362Z,24.5
2023-04-09T08:28:14.404Z,23.5
2023-04-09T08:29:14.430Z,25
2023-04-09T08:30:15.130Z,26.3571
2023-04-09T08:31:14.500Z,26.9286
2023-04-09T08:32:14.611Z,26.5
2023-04-09T08:33:14.578Z,24.9286
2023-04-09T08:34:14.604Z,26.3571
2023-04-09T08:35:14.647Z,26.3571
2023-04-09T08:36:14.716Z,25.7143
2023-04-09T08:37:14.723Z,26.2143
2023-04-09T08:38:14.758Z,26.4286
2023-04-09T08:39:14.790Z,25.7143
2023-04-09T08:40:14.824Z,25.7143
2023-04-09T08:41:15.136Z,26.5
2023-04-09T08:42:14.895Z,25.5
2023-04-09T08:43:14.940Z,25.9286
2023-04-09T08:44:14.996Z,25.8571
2023-04-09T08:45:15.018Z,26.6429
2023-04-09T08:46:15.101Z,26.5
2023-04-09T08:47:15.099Z,26.6429
2023-04-09T08:48:15.187Z,27.9286
2023-04-09T08:49:15.166Z,24.9286
2023-04-09T08:50:15.199Z,25.2143
2023-04-09T08:51:15.237Z,26.6429
2023-04-09T08:52:15.282Z,27.2143
2023-04-09T08:53:15.305Z,27.9286
2023-04-09T08:54:15.356Z,28.4286
2023-04-09T08:55:15.410Z,27.7143
2023-04-09T08:56:15.433Z,26.1429
2023-04-09T08:57:15.461Z,26.8571
2023-04-09T08:58:15.496Z,26.5
2023-04-09T08:59:15.531Z,27.4286
2023-04-09T09:00:15.585Z,27.7143
2023-04-09T09:01:15.655Z,26.7143
2023-04-09T09:02:15.676Z,27.6429
2023-04-09T09:03:15.830Z,28
2023-04-09T09:04:15.844Z,28.9286
2023-04-09T09:05:15.766Z,29.2143
2023-04-09T09:06:15.820Z,28.3571
2023-04-09T09:07:15.831Z,27.6429
2023-04-09T09:08:15.880Z,27.5
2023-04-09T09:09:15.909Z,27.5
2023-04-09T09:10:15.941Z,27.4286
2023-04-09T09:11:15.975Z,27.5
2023-04-09T09:12:16.014Z,29.3571
2023-04-09T09:13:16.050Z,28.1429
2023-04-09T09:14:16.107Z,29.1429
2023-04-09T09:15:16.125Z,29.6429
2023-04-09T09:16:16.230Z,28.7143
2023-04-09T09:17:16.218Z,28.4286
2023-04-09T09:18:16.250Z,28.8571
2023-04-09T09:19:16.276Z,30
2023-04-09T09:20:16.306Z,29
2023-04-09T09:21:16.354Z,29.4286
2023-04-09T09:22:16.397Z,28.7143
2023-04-09T09:23:16.429Z,28.9286
2023-04-09T09:24:16.488Z,28.3571
2023-04-09T09:25:16.504Z,28.3571
2023-04-09T09:26:16.648Z,29
2023-04-09T09:27:16.579Z,29.3571
2023-04-09T09:28:16.629Z,28.4286
2023-04-09T09:29:16.663Z,28.7143
2023-04-09T09:30:16.682Z,29.7143
2023-04-09T09:31:16.781Z,28.9286
2023-04-09T09:32:16.762Z,28.6429
2023-04-09T09:33:16.794Z,29.4286
2023-04-09T09:34:16.837Z,28.9286
2023-04-09T09:35:16.875Z,30.2143
2023-04-09T09:36:16.911Z,29.7143
2023-04-09T09:37:16.949Z,29.4286
2023-04-09T09:38:16.984Z,27.4286
2023-04-09T09:39:17.023Z,27.8571
2023-04-09T09:40:17.066Z,29.2143
2023-04-09T09:41:17.093Z,28.6429
2023-04-09T09:42:17.133Z,29.9286
2023-04-09T09:43:17.167Z,29
2023-04-09T09:44:17.217Z,28.4286
2023-04-09T09:45:17.242Z,29.1429
2023-04-09T09:46:17.335Z,28.3571
2023-04-09T09:47:17.320Z,28.7143
2023-04-09T09:48:17.382Z,29.2143
2023-04-09T09:49:17.397Z,28.7143
2023-04-09T09:50:17.475Z,29.1429
2023-04-09T09:51:17.494Z,28.7143
2023-04-09T09:52:17.521Z,30
2023-04-09T09:53:17.574Z,28.5
2023-04-09T09:54:17.585Z,29.1429
2023-04-09T09:55:17.634Z,29.5
2023-04-09T09:56:17.677Z,30.4286
2023-04-09T09:57:17.712Z,29.2143
2023-04-09T09:58:17.760Z,29.2143
2023-04-09T09:59:17.791Z,28.9286
2023-04-09T10:00:19.411Z,28.6429
2023-04-09T10:01:17.898Z,29.2143
2023-04-09T10:02:17.976Z,29.6429
2023-04-09T10:03:17.951Z,28.7143
2023-04-09T10:04:17.979Z,27.9286
2023-04-09T10:05:18.005Z,27.4286
2023-04-09T10:06:18.047Z,31.6429
2023-04-09T10:07:18.084Z,31.6429
2023-04-09T10:08:18.133Z,29.2143
2023-04-09T10:09:18.143Z,27.4286
2023-04-09T10:10:18.178Z,29.7143
2023-04-09T10:11:18.212Z,28.6429
2023-04-09T10:12:18.247Z,28
2023-04-09T10:13:18.304Z,28
2023-04-09T10:14:18.325Z,28.8571
2023-04-09T10:15:18.366Z,29.3571
2023-04-09T10:16:18.420Z,29.3571
2023-04-09T10:17:18.461Z,28.7143
2023-04-09T10:18:18.474Z,29.3571
2023-04-09T10:19:18.518Z,28.9286
2023-04-09T10:20:18.554Z,29
2023-04-09T10:21:18.596Z,29.5
2023-04-09T10:22:18.633Z,31.4286
2023-04-09T10:23:18.678Z,31.7143
2023-04-09T10:24:18.723Z,32.6429
2023-04-09T10:25:18.785Z,32.1429
2023-04-09T10:26:18.804Z,29.4286
2023-04-09T10:27:18.855Z,30.9286
2023-04-09T10:28:18.924Z,31.2143
2023-04-09T10:29:18.919Z,31.4286
2023-04-09T10:30:18.962Z,29.8571
2023-04-09T10:31:19.069Z,29.6429
2023-04-09T10:32:19.099Z,28.5
2023-04-09T10:33:19.062Z,30
2023-04-09T10:34:19.160Z,28.9286
2023-04-09T10:35:19.140Z,30.2143
2023-04-09T10:36:19.186Z,29.1429
2023-04-09T10:37:19.213Z,28.1429
2023-04-09T10:38:19.241Z,28.8571
2023-04-09T10:39:19.294Z,29.2143
2023-04-09T10:40:19.318Z,30
2023-04-09T10:41:19.367Z,29
2023-04-09T10:42:19.432Z,29.5
2023-04-09T10:43:19.443Z,27.6429
2023-04-09T10:44:19.474Z,28
2023-04-09T10:45:21.388Z,28.7143
2023-04-09T10:46:19.576Z,27.8571
2023-04-09T10:47:19.585Z,27.4286
2023-04-09T10:48:19.626Z,28.6429
2023-04-09T10:49:19.659Z,27.5
2023-04-09T10:50:19.731Z,27.5
2023-04-09T10:51:19.731Z,27.9286
2023-04-09T10:52:19.826Z,26.6429
2023-04-09T10:53:19.815Z,28.3571
2023-04-09T10:54:19.845Z,27.4286
2023-04-09T10:55:19.905Z,26.9286
2023-04-09T10:56:19.932Z,28.4286
2023-04-09T10:57:19.973Z,28.2143
2023-04-09T10:58:20.005Z,28
2023-04-09T10:59:20.033Z,27.5
2023-04-09T11:00:20.104Z,25.7143
2023-04-09T11:01:20.137Z,25.7143
2023-04-09T11:02:20.335Z,28.3571
2023-04-09T11:03:20.229Z,27.5
2023-04-09T11:04:20.232Z,27.4286
2023-04-09T11:05:20.266Z,26.3571
2023-04-09T11:06:20.298Z,26.7143
2023-04-09T11:07:20.348Z,27.8571
2023-04-09T11:08:20.374Z,26.9286
2023-04-09T11:09:20.418Z,26.9286
2023-04-09T11:10:20.462Z,29.2143
2023-04-09T11:11:20.489Z,30.2143
2023-04-09T11:12:20.533Z,27.3571
2023-04-09T11:13:20.563Z,27.3571
2023-04-09T11:14:20.597Z,26.3571
2023-04-09T11:15:20.635Z,26.4286
2023-04-09T11:16:20.684Z,26.6429
2023-04-09T11:17:20.722Z,25.3571
2023-04-09T11:18:20.759Z,25.8571
2023-04-09T11:19:20.788Z,26.6429
2023-04-09T11:20:20.858Z,25.1429
2023-04-09T11:21:20.860Z,25.8571
2023-04-09T11:22:20.899Z,30.9286
2023-04-09T11:23:20.934Z,29.8571
2023-04-09T11:24:20.974Z,26.6429
2023-04-09T11:25:21.057Z,26.6429
2023-04-09T11:26:21.061Z,25.6429
2023-04-09T11:27:21.106Z,25.5
2023-04-09T11:28:21.137Z,24.9286
2023-04-09T11:29:21.171Z,25
2023-04-09T11:30:21.227Z,25.8571
2023-04-09T11:31:21.278Z,25
2023-04-09T11:32:21.294Z,25.5
2023-04-09T11:33:21.365Z,24.8571
2023-04-09T11:34:21.369Z,24.5
2023-04-09T11:35:21.426Z,24.4286
2023-04-09T11:36:21.500Z,24.9286
2023-04-09T11:37:21.478Z,25.6429
2023-04-09T11:38:21.522Z,24.8571
2023-04-09T11:39:21.554Z,26
2023-04-09T11:40:21.595Z,25.5
2023-04-09T11:41:21.627Z,24.6429
2023-04-09T11:42:21.674Z,24.8571
2023-04-09T11:43:21.712Z,25.1429
2023-04-09T11:44:21.747Z,24.7143
2023-04-09T11:45:21.836Z,24.6429
2023-04-09T11:47:21.902Z,25.1429
2023-04-09T11:48:21.988Z,24.7143
2023-04-09T11:49:21.940Z,25.8571
2023-04-09T11:50:22.003Z,24.8571
2023-04-09T11:51:22.023Z,24.9286
2023-04-09T11:52:22.046Z,25.4286
2023-04-09T11:53:22.164Z,24.9286
2023-04-09T11:54:22.130Z,24.3571
2023-04-09T11:55:22.182Z,22.6429
2023-04-09T11:56:22.216Z,24
2023-04-09T11:57:22.245Z,23.5
2023-04-09T11:58:22.302Z,24
2023-04-09T11:59:22.322Z,23.1429
2023-04-09T12:00:22.356Z,23.6429
2023-04-09T12:01:22.401Z,23.2143
2023-04-09T12:02:22.598Z,24.2143
2023-04-09T12:03:22.800Z,24.2143
2023-04-09T12:04:22.655Z,23.7143
2023-04-09T12:05:22.564Z,24.5
2023-04-09T12:06:22.598Z,24.4286
2023-04-09T12:07:22.632Z,23.6429
2023-04-09T12:08:22.682Z,24.8571
2023-04-09T12:09:22.710Z,23.1429
2023-04-09T12:10:22.762Z,24
2023-04-09T12:11:22.796Z,23.4286
2023-04-09T12:12:22.845Z,22.5
2023-04-09T12:13:22.881Z,23.6429
2023-04-09T12:14:22.912Z,24
2023-04-09T12:15:22.957Z,24.1429
2023-04-09T12:16:23.006Z,23.1429
2023-04-09T12:17:23.057Z,24.1429
2023-04-09T12:18:23.066Z,22.1429
2023-04-09T12:19:23.103Z,21.1429
2023-04-09T12:20:23.150Z,20.6429
2023-04-09T12:21:23.181Z,20.3571
2023-04-09T12:22:23.213Z,20.2143
2023-04-09T12:23:23.250Z,20.8571
2023-04-09T12:24:23.291Z,21.6429
2023-04-09T12:25:23.334Z,26.8571